Date,TemperatureHighF,TemperatureAvgF,TemperatureLowF,DewpointHighF,DewpointAvgF,DewpointLowF,HumidityHigh,HumidityAvg,HumidityLow,PressureMaxIn,PressureMinIn,WindSpeedMaxMPH,WindSpeedAvgMPH,GustSpeedMaxMPH,PrecipitationSumIn
2013-1-1,54,46,39,39,33,30,43,40,38,30.04,29.99,0,-999,0,0.00
2013-1-2,58,44,36,35,30,28,42,39,38,30.01,29.90,0,-999,0,0.00
2013-1-3,57,44,36,37,32,28,43,40,37,30.04,29.93,0,-999,0,0.00
2013-1-4,59,47,39,37,33,30,42,38,34,30.07,29.96,0,-999,0,0.00
2013-1-5,57,49,40,47,41,33,44,40,37,30.04,29.84,0,-999,0,0.00
2013-1-6,52,49,43,47,44,39,46,45,44,29.99,29.84,0,-999,0,0.08
2013-1-7,61,50,41,52,43,38,46,45,44,30.04,29.96,0,-999,0,0.00
2013-1-8,65,52,45,52,43,39,46,46,44,30.01,29.93,0,-999,0,0.00
2013-1-9,59,50,45,50,42,34,46,46,46,29.93,29.81,0,-999,0,0.00
2013-1-10,55,48,43,37,31,28,46,44,41,29.99,29.87,0,-999,0,0.00
2013-1-11,56,46,38,37,31,28,42,40,38,30.04,29.90,0,-999,0,0.00
2013-1-12,53,43,37,34,26,18,40,38,36,30.04,29.93,0,-999,0,0.00
2013-1-13,51,40,32,25,22,17,37,36,35,30.04,29.96,0,-999,0,0.00
2013-1-14,51,40,31,21,17,14,36,35,33,30.19,30.01,0,-999,0,0.00
2013-1-15,55,42,33,26,22,18,35,34,34,30.25,30.16,0,-999,0,0.00
2013-1-16,57,43,34,29,26,23,35,34,33,30.22,30.01,0,-999,0,0.00
2013-1-17,62,46,35,33,29,26,35,34,34,30.04,29.93,0,-999,0,0.00
2013-1-18,63,48,37,36,31,28,38,36,34,30.01,29.90,0,-999,0,0.00
2013-1-19,63,48,37,34,30,25,38,36,36,30.01,29.93,0,-999,0,0.00
2013-1-20,64,48,37,37,29,26,37,36,35,30.01,29.90,0,-999,0,0.00
2013-1-21,64,48,36,34,29,25,37,35,34,29.96,29.84,0,-999,0,0.00
2013-1-22,63,49,38,37,32,27,36,35,35,29.87,29.78,0,-999,0,0.00
2013-1-23,56,52,48,49,41,33,40,37,36,29.87,29.75,0,-999,0,0.00
2013-1-24,58,56,52,52,50,48,43,42,39,29.96,29.84,0,-999,0,0.00
2013-1-25,67,60,57,58,53,51,45,44,43,29.96,29.81,0,-999,0,0.04
2013-1-26,63,55,46,53,42,33,45,43,40,29.87,29.78,0,-999,0,0.00
2013-1-27,60,51,46,38,32,25,43,40,38,29.96,29.87,0,-999,0,0.00
2013-1-28,60,51,45,40,34,30,40,39,38,30.07,29.93,0,-999,0,0.00
2013-1-29,60,50,41,39,36,33,39,38,37,30.13,30.04,0,-999,0,0.00
2013-1-30,68,53,45,41,36,32,41,39,37,30.13,30.04,0,-999,0,0.00
2013-1-31,65,51,41,44,36,32,44,42,40,30.07,29.96,0,-999,0,0.00